createdAt,value
2017-06-26T00:00:19.931Z,17.13
2017-06-26T00:02:48.316Z,17.11
2017-06-26T00:05:16.727Z,17.10
2017-06-26T00:07:45.495Z,17.10
2017-06-26T00:10:13.966Z,17.09
2017-06-26T00:12:42.339Z,17.08
2017-06-26T00:15:11.030Z,17.12
2017-06-26T00:17:39.410Z,17.09
2017-06-26T00:20:07.783Z,17.10
2017-06-26T00:22:36.166Z,17.09
2017-06-26T00:25:04.561Z,17.06
2017-06-26T00:27:32.943Z,17.06
2017-06-26T00:30:01.315Z,17.03
2017-06-26T00:32:29.700Z,17.02
2017-06-26T00:34:58.408Z,17.00
2017-06-26T00:37:26.795Z,17.03
2017-06-26T00:39:55.559Z,17.03
2017-06-26T00:42:24.671Z,17.03
2017-06-26T00:44:53.442Z,16.98
2017-06-26T00:47:21.816Z,16.98
2017-06-26T00:49:50.202Z,16.99
2017-06-26T00:52:18.570Z,17.01
2017-06-26T00:54:46.967Z,17.01
2017-06-26T00:57:15.354Z,17.00
2017-06-26T00:59:44.330Z,17.02
2017-06-26T01:02:12.708Z,17.03
2017-06-26T01:04:41.091Z,17.07
2017-06-26T01:07:09.472Z,17.07
2017-06-26T01:09:37.879Z,17.04
2017-06-26T01:12:06.670Z,17.03
2017-06-26T01:14:35.048Z,17.03
2017-06-26T01:17:03.822Z,17.06
2017-06-26T01:19:32.924Z,17.06
2017-06-26T01:22:01.749Z,16.97
2017-06-26T01:24:30.134Z,16.96
2017-06-26T01:26:58.631Z,16.90
2017-06-26T01:29:27.006Z,16.91
2017-06-26T01:31:55.381Z,16.92
2017-06-26T01:34:23.803Z,16.82
2017-06-26T01:36:52.279Z,16.73
2017-06-26T01:39:20.771Z,16.67
2017-06-26T01:41:49.143Z,16.64
2017-06-26T01:44:17.622Z,16.59
2017-06-26T01:46:45.995Z,16.55
2017-06-26T01:49:14.578Z,16.52
2017-06-26T01:51:43.062Z,16.53
2017-06-26T01:54:11.441Z,16.48
2017-06-26T01:56:39.832Z,16.49
2017-06-26T01:59:08.211Z,16.53
2017-06-26T02:01:37.235Z,16.53
2017-06-26T02:04:06.302Z,16.59
2017-06-26T02:06:35.002Z,16.60
2017-06-26T02:09:03.836Z,16.62
2017-06-26T02:11:32.215Z,16.65
2017-06-26T02:14:00.611Z,16.63
2017-06-26T02:16:28.987Z,16.60
2017-06-26T02:18:57.380Z,16.62
2017-06-26T02:21:26.002Z,16.63
2017-06-26T02:23:54.790Z,16.64
2017-06-26T02:26:23.562Z,16.62
2017-06-26T02:28:52.139Z,16.61
2017-06-26T02:31:20.519Z,16.62
2017-06-26T02:33:48.894Z,16.61
2017-06-26T02:36:17.278Z,16.61
2017-06-26T02:38:45.890Z,16.63
2017-06-26T02:41:14.670Z,16.59
2017-06-26T02:43:43.543Z,16.51
2017-06-26T02:46:11.984Z,16.47
2017-06-26T02:48:40.407Z,16.45
2017-06-26T02:51:08.795Z,16.40
2017-06-26T02:53:37.172Z,16.36
2017-06-26T02:56:06.082Z,16.27
2017-06-26T02:58:34.846Z,16.21
2017-06-26T03:01:03.231Z,16.26
2017-06-26T03:03:31.618Z,16.33
2017-06-26T03:05:59.995Z,16.37
2017-06-26T03:08:28.386Z,16.42
2017-06-26T03:10:57.150Z,16.47
2017-06-26T03:13:25.536Z,16.54
2017-06-26T03:15:53.908Z,16.57
2017-06-26T03:18:22.498Z,16.60
2017-06-26T03:20:50.866Z,16.66
2017-06-26T03:23:19.482Z,16.67
2017-06-26T03:25:48.266Z,16.70
2017-06-26T03:28:17.030Z,16.74
2017-06-26T03:30:45.419Z,16.74
2017-06-26T03:33:13.791Z,16.77
2017-06-26T03:35:42.179Z,16.77
2017-06-26T03:38:10.547Z,16.81
2017-06-26T03:40:39.167Z,16.85
2017-06-26T03:43:07.950Z,16.89
2017-06-26T03:45:36.727Z,16.91
2017-06-26T03:48:05.339Z,16.94
2017-06-26T03:50:33.713Z,17.01
2017-06-26T03:53:02.487Z,17.04
2017-06-26T03:55:30.878Z,17.01
2017-06-26T03:57:59.975Z,17.07
2017-06-26T04:00:28.764Z,17.09
2017-06-26T04:02:57.223Z,17.17
2017-06-26T04:05:25.807Z,17.28
2017-06-26T04:07:55.134Z,17.42
2017-06-26T04:10:23.899Z,17.63
2017-06-26T04:12:53.186Z,17.77
2017-06-26T04:15:21.554Z,18.00
2017-06-26T04:17:49.943Z,18.25
2017-06-26T04:20:18.330Z,18.31
2017-06-26T04:22:46.924Z,18.28
2017-06-26T04:25:15.291Z,18.24
2017-06-26T04:27:43.662Z,18.14
2017-06-26T04:30:12.058Z,18.17
2017-06-26T04:32:40.438Z,18.16
2017-06-26T04:35:09.339Z,18.16
2017-06-26T04:37:37.718Z,18.05
2017-06-26T04:40:06.115Z,17.96
2017-06-26T04:42:34.886Z,17.91
2017-06-26T04:45:03.283Z,17.97
2017-06-26T04:47:32.052Z,17.99
2017-06-26T04:50:01.023Z,18.02
2017-06-26T04:52:29.394Z,17.89
2017-06-26T04:54:57.794Z,17.79
2017-06-26T04:57:26.182Z,17.67
2017-06-26T04:59:54.559Z,17.60
2017-06-26T05:02:22.944Z,17.61
2017-06-26T05:04:51.332Z,17.63
2017-06-26T05:07:20.090Z,17.69
2017-06-26T05:09:48.719Z,17.68
2017-06-26T05:12:17.495Z,17.64
2017-06-26T05:14:45.921Z,17.59
2017-06-26T05:17:14.303Z,17.56
2017-06-26T05:19:42.703Z,17.58
2017-06-26T05:22:11.078Z,17.56
2017-06-26T05:24:39.802Z,17.46
2017-06-26T05:27:08.179Z,17.46
2017-06-26T05:29:36.564Z,17.47
2017-06-26T05:32:05.262Z,17.48
2017-06-26T05:34:34.035Z,17.46
2017-06-26T05:37:02.427Z,17.38
2017-06-26T05:39:31.298Z,17.35
2017-06-26T05:41:59.686Z,17.38
2017-06-26T05:44:28.069Z,17.43
2017-06-26T05:46:56.642Z,17.44
2017-06-26T05:49:25.015Z,17.46
2017-06-26T05:51:53.394Z,17.42
2017-06-26T05:54:22.115Z,17.40
2017-06-26T05:56:50.491Z,17.42
2017-06-26T05:59:19.591Z,17.42
2017-06-26T06:01:48.360Z,17.35
2017-06-26T06:04:17.327Z,17.35
2017-06-26T06:06:45.703Z,17.30
2017-06-26T06:09:14.211Z,17.30
2017-06-26T06:11:42.606Z,17.29
2017-06-26T06:14:11.710Z,17.11
2017-06-26T06:16:40.807Z,17.06
2017-06-26T06:19:09.262Z,16.85
2017-06-26T06:21:37.650Z,16.85
2017-06-26T06:24:06.018Z,16.18
2017-06-26T06:26:34.411Z,15.70
2017-06-26T06:29:02.822Z,15.47
2017-06-26T06:31:31.203Z,15.33
2017-06-26T06:33:59.590Z,15.29
2017-06-26T06:36:27.967Z,15.29
2017-06-26T06:38:56.507Z,15.28
2017-06-26T06:41:24.884Z,15.22
2017-06-26T06:43:53.268Z,15.16
2017-06-26T06:46:21.670Z,15.16
2017-06-26T06:48:50.447Z,14.99
2017-06-26T06:51:19.249Z,14.87
2017-06-26T06:53:48.032Z,14.88
2017-06-26T06:56:16.928Z,14.80
2017-06-26T06:58:45.312Z,14.76
2017-06-26T07:01:14.402Z,14.77
2017-06-26T07:03:43.200Z,14.96
2017-06-26T07:06:11.574Z,14.89
2017-06-26T07:08:40.355Z,14.87
2017-06-26T07:11:09.140Z,14.89
2017-06-26T07:13:37.523Z,14.92
2017-06-26T07:16:06.294Z,15.00
2017-06-26T07:18:34.878Z,15.06
2017-06-26T07:21:03.256Z,15.09
2017-06-26T07:23:31.656Z,15.27
2017-06-26T07:26:00.056Z,15.44
2017-06-26T07:28:28.503Z,15.54
2017-06-26T07:30:56.996Z,15.78
2017-06-26T07:33:25.375Z,16.05
2017-06-26T07:35:54.163Z,16.18
2017-06-26T07:38:23.045Z,16.62
2017-06-26T07:40:51.433Z,16.93
2017-06-26T07:43:19.831Z,18.34
2017-06-26T07:45:48.608Z,19.26
2017-06-26T07:48:16.995Z,19.70
2017-06-26T07:50:45.763Z,20.10
2017-06-26T07:53:14.318Z,20.44
2017-06-26T07:55:42.700Z,21.14
2017-06-26T07:58:11.075Z,21.39
2017-06-26T08:00:39.476Z,21.18
2017-06-26T08:03:07.860Z,21.33
2017-06-26T08:05:36.255Z,22.70
2017-06-26T08:08:04.622Z,23.65
2017-06-26T08:10:33.002Z,22.72
2017-06-26T08:13:01.370Z,22.05
2017-06-26T08:15:29.755Z,21.57
2017-06-26T08:17:58.373Z,21.50
2017-06-26T08:20:27.467Z,22.52
2017-06-26T08:22:56.260Z,24.43
2017-06-26T08:25:25.049Z,24.36
2017-06-26T08:27:53.826Z,24.08
2017-06-26T08:30:22.195Z,24.27
2017-06-26T08:32:50.580Z,24.88
2017-06-26T08:35:18.965Z,25.07
2017-06-26T08:37:47.348Z,27.38
2017-06-26T08:40:15.735Z,28.64
2017-06-26T08:42:44.520Z,28.37
2017-06-26T08:45:13.307Z,28.42
2017-06-26T08:47:42.090Z,30.12
2017-06-26T08:50:10.488Z,29.29
2017-06-26T08:52:38.867Z,28.26
2017-06-26T08:55:07.651Z,27.44
2017-06-26T08:57:36.450Z,26.85
2017-06-26T09:00:04.827Z,26.61
2017-06-26T09:02:33.615Z,26.56
2017-06-26T09:05:02.379Z,27.04
2017-06-26T09:07:30.776Z,27.65
2017-06-26T09:09:59.543Z,28.72
2017-06-26T09:12:27.932Z,27.64
2017-06-26T09:14:56.318Z,27.18
2017-06-26T09:17:25.101Z,26.89
2017-06-26T09:19:53.686Z,26.69
2017-06-26T09:22:22.065Z,26.73
2017-06-26T09:24:50.453Z,25.75
2017-06-26T09:27:19.239Z,25.74
2017-06-26T09:29:48.020Z,26.96
2017-06-26T09:32:16.505Z,27.08
2017-06-26T09:34:45.279Z,28.00
2017-06-26T09:37:13.681Z,28.62
2017-06-26T09:39:42.563Z,29.86
2017-06-26T09:42:10.965Z,30.98
2017-06-26T09:44:40.055Z,32.28
2017-06-26T09:47:08.832Z,32.86
2017-06-26T09:49:37.242Z,33.18
2017-06-26T09:52:05.636Z,30.45
2017-06-26T09:54:34.168Z,29.44
2017-06-26T09:57:03.079Z,30.89
2017-06-26T09:59:31.865Z,32.39
2017-06-26T10:02:00.651Z,34.10
2017-06-26T10:04:29.532Z,34.13
2017-06-26T10:06:58.749Z,34.44
2017-06-26T10:09:27.133Z,35.37
2017-06-26T10:11:55.929Z,34.77
2017-06-26T10:14:24.371Z,33.72
2017-06-26T10:16:52.968Z,33.09
2017-06-26T10:19:21.343Z,32.52
2017-06-26T10:21:49.725Z,32.26
2017-06-26T10:24:18.208Z,32.28
2017-06-26T10:26:46.696Z,31.06
2017-06-26T10:29:15.479Z,33.35
2017-06-26T10:31:43.855Z,34.35
2017-06-26T10:34:12.292Z,34.62
2017-06-26T10:36:40.672Z,33.25
2017-06-26T10:39:09.199Z,31.43
2017-06-26T10:41:37.585Z,29.49
2017-06-26T10:44:05.972Z,28.21
2017-06-26T10:46:34.756Z,27.13
2017-06-26T10:49:03.128Z,26.30
2017-06-26T10:51:32.136Z,27.21
2017-06-26T10:54:00.913Z,27.63
2017-06-26T10:56:29.299Z,28.01
2017-06-26T10:58:57.680Z,28.41
2017-06-26T11:01:26.067Z,29.54
2017-06-26T11:03:54.839Z,30.25
2017-06-26T11:06:23.420Z,30.82
2017-06-26T11:08:51.788Z,32.32
2017-06-26T11:11:20.178Z,32.46
2017-06-26T11:13:48.576Z,32.16
2017-06-26T11:16:17.408Z,31.81
2017-06-26T11:18:45.795Z,30.42
2017-06-26T11:21:14.192Z,28.34
2017-06-26T11:23:42.891Z,27.50
2017-06-26T11:26:11.272Z,27.65
2017-06-26T11:28:39.657Z,27.07
2017-06-26T11:31:08.053Z,26.36
2017-06-26T11:33:36.819Z,25.92
2017-06-26T11:36:05.541Z,25.60
2017-06-26T11:38:34.325Z,25.27
2017-06-26T11:41:03.308Z,24.87
2017-06-26T11:43:32.004Z,24.59
2017-06-26T11:46:00.377Z,24.31
2017-06-26T11:48:29.164Z,24.05
2017-06-26T11:50:57.936Z,24.00
2017-06-26T11:53:26.340Z,24.21
2017-06-26T11:55:55.121Z,24.75
2017-06-26T11:58:23.511Z,24.96
2017-06-26T12:00:52.303Z,24.85
2017-06-26T12:03:21.727Z,25.14
2017-06-26T12:05:50.119Z,25.31
2017-06-26T12:08:18.718Z,25.07
2017-06-26T12:10:47.106Z,24.70
2017-06-26T12:13:15.489Z,24.42
2017-06-26T12:15:43.875Z,24.20
2017-06-26T12:18:12.300Z,24.00
2017-06-26T12:20:40.697Z,24.05
2017-06-26T12:23:09.071Z,23.96
2017-06-26T12:25:38.203Z,24.01
2017-06-26T12:28:06.589Z,24.27
2017-06-26T12:30:34.990Z,24.75
2017-06-26T12:33:03.367Z,25.05
2017-06-26T12:35:31.761Z,24.90
2017-06-26T12:38:00.863Z,24.82
2017-06-26T12:40:29.652Z,24.76
2017-06-26T12:42:58.461Z,24.68
2017-06-26T12:45:26.850Z,24.53
2017-06-26T12:47:55.244Z,24.26
2017-06-26T12:50:23.630Z,24.33
2017-06-26T12:52:52.024Z,24.28
2017-06-26T12:55:20.644Z,24.34
2017-06-26T12:57:49.520Z,24.61
2017-06-26T13:00:17.896Z,24.78
2017-06-26T13:02:46.493Z,24.97
2017-06-26T13:05:15.258Z,25.26
2017-06-26T13:07:43.632Z,25.48
2017-06-26T13:10:12.250Z,25.34
2017-06-26T13:12:41.137Z,25.34
2017-06-26T13:15:09.951Z,24.98
2017-06-26T13:17:38.327Z,24.39
2017-06-26T13:20:07.029Z,24.41
2017-06-26T13:22:35.420Z,24.31
2017-06-26T13:25:03.816Z,24.23
2017-06-26T13:27:32.549Z,24.46
2017-06-26T13:30:00.923Z,24.66
2017-06-26T13:32:29.316Z,24.77
2017-06-26T13:34:57.701Z,24.82
2017-06-26T13:37:26.145Z,24.66
2017-06-26T13:39:54.516Z,24.55
2017-06-26T13:42:23.108Z,24.15
2017-06-26T13:44:51.595Z,23.82
2017-06-26T13:47:20.303Z,23.80
2017-06-26T13:49:48.691Z,23.86
2017-06-26T13:52:17.609Z,23.82
2017-06-26T13:54:46.093Z,23.91
2017-06-26T13:57:14.469Z,23.85
2017-06-26T13:59:43.010Z,23.84
2017-06-26T14:02:11.779Z,23.73
2017-06-26T14:04:40.151Z,23.74
2017-06-26T14:07:08.553Z,23.75
2017-06-26T14:09:36.937Z,23.86
2017-06-26T14:12:05.752Z,24.07
2017-06-26T14:14:34.132Z,24.72
2017-06-26T14:17:02.688Z,24.88
2017-06-26T14:19:31.073Z,24.79
2017-06-26T14:21:59.853Z,24.56
2017-06-26T14:24:28.255Z,24.67
2017-06-26T14:26:57.027Z,24.82
2017-06-26T14:29:25.411Z,24.97
2017-06-26T14:31:54.199Z,24.81
2017-06-26T14:34:22.979Z,24.51
2017-06-26T14:36:51.365Z,24.50
2017-06-26T14:39:19.767Z,24.38
2017-06-26T14:41:48.159Z,24.44
2017-06-26T14:44:17.419Z,24.34
2017-06-26T14:46:45.801Z,24.22
2017-06-26T14:49:14.184Z,24.26
2017-06-26T14:51:42.572Z,24.30
2017-06-26T14:54:11.671Z,24.61
2017-06-26T14:56:40.136Z,24.63
2017-06-26T14:59:08.511Z,24.65
2017-06-26T15:01:36.900Z,24.59
2017-06-26T15:04:05.676Z,24.68
2017-06-26T15:06:34.062Z,24.61
2017-06-26T15:09:02.431Z,24.77
2017-06-26T15:11:31.024Z,24.79
2017-06-26T15:13:59.738Z,24.58
2017-06-26T15:16:28.525Z,24.19
2017-06-26T15:18:57.303Z,23.98
2017-06-26T15:21:26.240Z,23.89
2017-06-26T15:23:54.825Z,23.82
2017-06-26T15:26:23.271Z,23.94
2017-06-26T15:28:52.239Z,24.20
2017-06-26T15:31:20.633Z,24.26
2017-06-26T15:33:49.508Z,24.33
2017-06-26T15:36:17.891Z,24.16
2017-06-26T15:38:46.494Z,24.22
2017-06-26T15:41:15.288Z,24.20
2017-06-26T15:43:44.095Z,24.06
2017-06-26T15:46:12.479Z,23.96
2017-06-26T15:48:40.866Z,24.13
2017-06-26T15:51:09.240Z,23.99
2017-06-26T15:53:37.641Z,24.06
2017-06-26T15:56:06.060Z,24.36
2017-06-26T15:58:34.490Z,24.65
2017-06-26T16:03:37.696Z,24.20
2017-06-26T16:06:06.081Z,24.20
2017-06-26T16:08:34.824Z,24.41
2017-06-26T16:11:03.259Z,24.32
2017-06-26T16:13:31.660Z,24.19
2017-06-26T16:16:00.060Z,24.10
2017-06-26T16:18:28.869Z,23.93
2017-06-26T16:20:57.731Z,23.85
2017-06-26T16:23:26.148Z,23.59
2017-06-26T16:25:54.698Z,23.28
2017-06-26T16:28:23.192Z,23.21
2017-06-26T16:30:52.085Z,23.26
2017-06-26T16:33:20.873Z,23.30
2017-06-26T16:35:49.656Z,23.34
2017-06-26T16:38:18.053Z,23.50
2017-06-26T16:40:46.818Z,23.50
2017-06-26T16:43:15.404Z,23.27
2017-06-26T16:45:43.792Z,23.35
2017-06-26T16:48:12.168Z,23.61
2017-06-26T16:50:40.599Z,23.83
2017-06-26T16:53:08.977Z,23.81
2017-06-26T16:55:37.362Z,23.60
2017-06-26T16:58:05.752Z,23.35
2017-06-26T17:00:34.143Z,23.00
2017-06-26T17:03:02.520Z,22.91
2017-06-26T17:05:30.977Z,22.91
2017-06-26T17:07:59.360Z,23.06
2017-06-26T17:10:27.996Z,23.23
2017-06-26T17:12:56.384Z,23.29
2017-06-26T17:15:25.488Z,23.52
2017-06-26T17:17:54.158Z,23.59
2017-06-26T17:20:22.544Z,23.34
2017-06-26T17:22:51.332Z,23.22
2017-06-26T17:25:20.102Z,23.26
2017-06-26T17:27:48.499Z,23.37
2017-06-26T17:30:16.886Z,23.27
2017-06-26T17:32:45.673Z,23.25
2017-06-26T17:35:14.448Z,23.17
2017-06-26T17:37:43.040Z,23.09
2017-06-26T17:40:11.936Z,22.97
2017-06-26T17:42:40.825Z,22.99
2017-06-26T17:45:09.607Z,22.92
2017-06-26T17:47:38.587Z,22.78
2017-06-26T17:50:06.986Z,22.65
2017-06-26T17:52:35.368Z,22.37
2017-06-26T17:55:04.054Z,22.20
2017-06-26T17:57:32.437Z,21.95
2017-06-26T18:00:01.207Z,21.80
2017-06-26T18:02:29.599Z,21.65
2017-06-26T18:04:57.981Z,21.52
2017-06-26T18:07:26.611Z,21.38
2017-06-26T18:09:55.003Z,21.28
2017-06-26T18:12:23.642Z,21.26
2017-06-26T18:14:52.843Z,21.23
2017-06-26T18:17:21.631Z,21.16
2017-06-26T18:19:50.017Z,21.06
2017-06-26T18:22:18.984Z,20.99
2017-06-26T18:24:47.374Z,20.88
2017-06-26T18:27:17.487Z,20.78
2017-06-26T18:29:45.882Z,20.69
2017-06-26T18:32:14.748Z,20.62
2017-06-26T18:34:43.156Z,20.57
2017-06-26T18:37:11.929Z,20.50
2017-06-26T18:39:40.720Z,20.43
2017-06-26T18:42:09.091Z,20.38
2017-06-26T18:44:37.575Z,20.34
2017-06-26T18:47:05.972Z,20.30
2017-06-26T18:49:34.857Z,20.24
2017-06-26T18:52:03.258Z,20.18
2017-06-26T18:54:31.693Z,20.13
2017-06-26T18:57:00.226Z,20.06
2017-06-26T18:59:28.674Z,20.02
2017-06-26T19:01:57.058Z,19.96
2017-06-26T19:04:25.445Z,19.86
2017-06-26T19:06:54.433Z,19.79
2017-06-26T19:09:22.807Z,19.70
2017-06-26T19:11:51.240Z,19.62
2017-06-26T19:14:19.633Z,19.58
2017-06-26T19:16:48.021Z,19.53
2017-06-26T19:19:16.407Z,19.54
2017-06-26T19:21:44.784Z,19.53
2017-06-26T19:24:13.516Z,19.56
2017-06-26T19:26:42.284Z,19.56
2017-06-26T19:29:10.863Z,19.54
2017-06-26T19:31:39.471Z,19.48
2017-06-26T19:34:08.579Z,19.48
2017-06-26T19:36:36.985Z,19.44
2017-06-26T19:39:05.377Z,19.46
2017-06-26T19:41:33.775Z,19.44
2017-06-26T19:44:02.860Z,19.42
2017-06-26T19:46:31.482Z,19.40
2017-06-26T19:49:00.250Z,19.34
2017-06-26T19:51:29.333Z,19.25
2017-06-26T19:53:57.894Z,19.16
2017-06-26T19:56:26.300Z,19.11
2017-06-26T19:58:54.888Z,19.05
2017-06-26T20:01:23.284Z,18.97
2017-06-26T20:03:51.881Z,18.88
2017-06-26T20:06:20.654Z,18.84
2017-06-26T20:08:49.031Z,18.80
2017-06-26T20:11:17.419Z,18.76
2017-06-26T20:13:45.853Z,18.71
2017-06-26T20:16:14.239Z,18.67
2017-06-26T20:18:42.815Z,18.73
2017-06-26T20:21:11.219Z,18.78
2017-06-26T20:23:39.604Z,18.78
2017-06-26T20:26:07.992Z,18.79
2017-06-26T20:28:36.373Z,18.76
2017-06-26T20:31:05.300Z,18.77
2017-06-26T20:33:34.387Z,18.74
2017-06-26T20:36:03.164Z,18.73
2017-06-26T20:38:31.862Z,18.69
2017-06-26T20:41:00.668Z,18.68
2017-06-26T20:43:29.082Z,18.69
2017-06-26T20:45:57.469Z,18.69
2017-06-26T20:48:25.971Z,18.67
2017-06-26T20:50:55.273Z,18.63
2017-06-26T20:53:23.656Z,18.66
2017-06-26T20:55:52.051Z,18.65
2017-06-26T20:58:20.836Z,18.62
2017-06-26T21:00:49.241Z,18.60
2017-06-26T21:03:17.639Z,18.52
2017-06-26T21:05:46.048Z,18.47
2017-06-26T21:08:14.436Z,18.39
2017-06-26T21:10:42.979Z,18.32
2017-06-26T21:13:11.350Z,18.20
2017-06-26T21:15:39.736Z,18.08
2017-06-26T21:18:08.400Z,18.03
2017-06-26T21:20:37.181Z,18.02
2017-06-26T21:23:05.981Z,18.04
2017-06-26T21:25:34.756Z,18.06
2017-06-26T21:28:03.553Z,18.08
2017-06-26T21:30:32.326Z,18.12
2017-06-26T21:33:00.720Z,18.12
2017-06-26T21:35:30.432Z,18.12
2017-06-26T21:37:59.228Z,18.09
2017-06-26T21:40:28.094Z,18.05
2017-06-26T21:42:56.471Z,17.98
2017-06-26T21:45:24.869Z,17.89
2017-06-26T21:47:53.736Z,17.80
2017-06-26T21:50:22.141Z,17.71
2017-06-26T21:52:50.928Z,17.64
2017-06-26T21:55:19.909Z,17.59
2017-06-26T21:57:48.296Z,17.50
2017-06-26T22:00:16.681Z,17.40
2017-06-26T22:02:45.527Z,17.33
2017-06-26T22:05:13.913Z,17.21
2017-06-26T22:07:42.321Z,17.11
2017-06-26T22:10:10.795Z,17.06
2017-06-26T22:12:39.192Z,16.99
2017-06-26T22:15:07.997Z,16.91
2017-06-26T22:17:36.893Z,16.77
2017-06-26T22:20:05.277Z,16.73
2017-06-26T22:22:33.666Z,16.68
2017-06-26T22:25:02.064Z,16.64
2017-06-26T22:27:30.475Z,16.59
2017-06-26T22:29:59.097Z,16.53
2017-06-26T22:32:27.483Z,16.54
2017-06-26T22:34:55.889Z,16.49
2017-06-26T22:37:24.499Z,16.45
2017-06-26T22:39:53.009Z,16.38
2017-06-26T22:42:21.779Z,16.33
2017-06-26T22:44:50.697Z,16.33
2017-06-26T22:47:19.492Z,16.31
2017-06-26T22:49:48.272Z,16.28
2017-06-26T22:52:17.068Z,16.22
2017-06-26T22:54:45.835Z,16.28
2017-06-26T22:57:14.522Z,16.28
2017-06-26T22:59:43.226Z,16.30
2017-06-26T23:02:13.255Z,16.27
2017-06-26T23:04:41.653Z,16.24
2017-06-26T23:07:10.311Z,16.27
2017-06-26T23:09:39.184Z,16.22
2017-06-26T23:12:07.557Z,16.18
2017-06-26T23:14:36.160Z,16.13
2017-06-26T23:17:04.935Z,16.07
2017-06-26T23:19:33.321Z,16.05
2017-06-26T23:22:01.749Z,16.04
2017-06-26T23:24:30.132Z,16.00
2017-06-26T23:26:58.519Z,15.95
2017-06-26T23:29:26.895Z,15.92
2017-06-26T23:31:55.395Z,15.87
2017-06-26T23:34:23.770Z,15.81
2017-06-26T23:36:52.405Z,15.74
2017-06-26T23:39:21.192Z,15.68
2017-06-26T23:41:49.581Z,15.64
2017-06-26T23:44:18.439Z,15.56
2017-06-26T23:46:46.826Z,15.47
2017-06-26T23:49:15.224Z,15.42
2017-06-26T23:51:44.012Z,15.38
2017-06-26T23:54:12.833Z,15.37
2017-06-26T23:56:41.216Z,15.37
2017-06-26T23:59:09.753Z,15.35
